Lake Forest, Missouri
Current Conditions -  °F | °C
As of 6:35 AM on Monday 24 Nov 2014 (Local Time) from KSAR Reporting Station
Overcast Overcast  
Wind Chill: 30°   Ceiling: 2000
Heat Index: 38°   Visibility: 10mi
Dew Point: 34°   Wind: 14mph
Humidity: 84%   Direction: 260°W
Pressure: 29.52"   Gusts: 20mph
Location:  37.9762°N, 90.0499°W
Report Text: KSAR 241235Z AUTO 26012G17KT 10SM OVC020 04/01 A2952 RMK AO2 T00350010
Loading
Personal Weather Stations






























Interactive Weather Map New forecast layout! Learn more

10-Day Weather Forecast

Advertisements
Track Severe Weather on mobile